Terminal Aerodrome Forecast
Issued by NWS Wichita, KS

Home | Current Version | Previous Version | Graphics & Text | Print | Product List | Glossary On
Versions: 1 2 3 4 5 6 7 8 9 10 11 12 13 14 15 16 17 18 19 20 21 22 23 24 25
217
FTUS43 KICT 301136 AAB
TAFICT
TAF AMD
KICT 301136Z 3012/0112 28012KT P6SM OVC007
     FM301500 27014KT P6SM SCT010 BKN020
     FM301700 27014G21KT P6SM SCT020 BKN040
     FM010100 29009KT P6SM SCT150=

USA.gov is the U.S. government's official web portal to all federal, state and local government web resources and services.